sensor_id;sensor_type;location;lat;lon;timestamp;P1;durP1;ratioP1;P2;durP2;ratioP2
6163;SDS011;3114;48.362;10.994;2022-08-06T00:00:58;6.30;;;5.80;;
6163;SDS011;3114;48.362;10.994;2022-08-06T00:03:26;7.80;;;7.25;;
6163;SDS011;3114;48.362;10.994;2022-08-06T00:05:54;6.82;;;6.10;;
6163;SDS011;3114;48.362;10.994;2022-08-06T00:08:21;3.50;;;2.45;;
6163;SDS011;3114;48.362;10.994;2022-08-06T00:10:48;3.85;;;2.38;;
6163;SDS011;3114;48.362;10.994;2022-08-06T00:13:15;3.88;;;2.50;;
6163;SDS011;3114;48.362;10.994;2022-08-06T00:15:43;4.05;;;2.33;;
6163;SDS011;3114;48.362;10.994;2022-08-06T00:18:10;5.10;;;2.30;;
6163;SDS011;3114;48.362;10.994;2022-08-06T00:20:37;3.63;;;2.92;;
6163;SDS011;3114;48.362;10.994;2022-08-06T00:23:05;5.00;;;2.65;;
6163;SDS011;3114;48.362;10.994;2022-08-06T00:25:32;2.95;;;2.42;;
6163;SDS011;3114;48.362;10.994;2022-08-06T00:27:59;2.90;;;2.70;;
6163;SDS011;3114;48.362;10.994;2022-08-06T00:30:26;3.60;;;3.25;;
6163;SDS011;3114;48.362;10.994;2022-08-06T00:32:52;4.93;;;2.88;;
6163;SDS011;3114;48.362;10.994;2022-08-06T00:35:21;5.43;;;3.80;;
6163;SDS011;3114;48.362;10.994;2022-08-06T00:37:48;5.55;;;4.15;;
6163;SDS011;3114;48.362;10.994;2022-08-06T00:40:16;5.60;;;4.55;;
6163;SDS011;3114;48.362;10.994;2022-08-06T00:42:46;7.35;;;4.85;;
6163;SDS011;3114;48.362;10.994;2022-08-06T00:45:13;6.57;;;5.10;;
6163;SDS011;3114;48.362;10.994;2022-08-06T00:47:40;8.73;;;5.90;;
6163;SDS011;3114;48.362;10.994;2022-08-06T00:50:07;8.13;;;6.28;;
6163;SDS011;3114;48.362;10.994;2022-08-06T00:52:34;8.55;;;7.10;;
6163;SDS011;3114;48.362;10.994;2022-08-06T00:55:01;10.63;;;8.02;;
6163;SDS011;3114;48.362;10.994;2022-08-06T00:57:29;9.60;;;7.88;;
6163;SDS011;3114;48.362;10.994;2022-08-06T00:59:56;9.70;;;7.47;;
6163;SDS011;3114;48.362;10.994;2022-08-06T01:02:23;13.65;;;8.60;;
6163;SDS011;3114;48.362;10.994;2022-08-06T01:04:50;11.52;;;8.68;;
6163;SDS011;3114;48.362;10.994;2022-08-06T01:07:16;11.63;;;9.30;;
6163;SDS011;3114;48.362;10.994;2022-08-06T01:09:43;11.60;;;8.90;;
6163;SDS011;3114;48.362;10.994;2022-08-06T01:12:10;12.13;;;8.90;;
6163;SDS011;3114;48.362;10.994;2022-08-06T01:14:38;11.52;;;8.65;;
6163;SDS011;3114;48.362;10.994;2022-08-06T01:17:07;10.93;;;8.80;;
6163;SDS011;3114;48.362;10.994;2022-08-06T01:19:44;10.88;;;9.10;;
6163;SDS011;3114;48.362;10.994;2022-08-06T01:25:22;9.32;;;8.23;;
6163;SDS011;3114;48.362;10.994;2022-08-06T01:28:12;10.52;;;8.68;;
6163;SDS011;3114;48.362;10.994;2022-08-06T01:30:42;10.65;;;8.88;;
6163;SDS011;3114;48.362;10.994;2022-08-06T01:33:14;11.65;;;9.00;;
6163;SDS011;3114;48.362;10.994;2022-08-06T01:35:47;10.25;;;8.32;;
6163;SDS011;3114;48.362;10.994;2022-08-06T01:38:20;12.23;;;9.15;;
6163;SDS011;3114;48.362;10.994;2022-08-06T01:40:51;13.30;;;8.88;;
6163;SDS011;3114;48.362;10.994;2022-08-06T01:43:20;14.20;;;8.55;;
6163;SDS011;3114;48.362;10.994;2022-08-06T01:45:48;9.55;;;7.13;;
6163;SDS011;3114;48.362;10.994;2022-08-06T01:48:19;9.52;;;8.07;;
6163;SDS011;3114;48.362;10.994;2022-08-06T01:50:50;9.13;;;7.10;;
6163;SDS011;3114;48.362;10.994;2022-08-06T01:53:21;8.95;;;6.45;;
6163;SDS011;3114;48.362;10.994;2022-08-06T01:55:53;8.18;;;6.68;;
6163;SDS011;3114;48.362;10.994;2022-08-06T01:58:27;6.80;;;5.95;;
6163;SDS011;3114;48.362;10.994;2022-08-06T02:00:56;8.63;;;6.35;;
6163;SDS011;3114;48.362;10.994;2022-08-06T02:03:27;8.07;;;6.10;;
6163;SDS011;3114;48.362;10.994;2022-08-06T02:05:56;6.65;;;5.95;;
6163;SDS011;3114;48.362;10.994;2022-08-06T02:08:26;6.70;;;5.97;;
6163;SDS011;3114;48.362;10.994;2022-08-06T02:10:56;7.25;;;6.55;;
6163;SDS011;3114;48.362;10.994;2022-08-06T02:13:25;6.68;;;5.80;;
6163;SDS011;3114;48.362;10.994;2022-08-06T02:15:56;6.90;;;6.13;;
6163;SDS011;3114;48.362;10.994;2022-08-06T02:18:24;7.68;;;5.97;;
6163;SDS011;3114;48.362;10.994;2022-08-06T02:20:53;8.57;;;6.57;;
6163;SDS011;3114;48.362;10.994;2022-08-06T02:23:23;7.10;;;6.13;;
6163;SDS011;3114;48.362;10.994;2022-08-06T02:25:52;9.02;;;6.90;;
6163;SDS011;3114;48.362;10.994;2022-08-06T02:28:21;8.48;;;6.72;;
6163;SDS011;3114;48.362;10.994;2022-08-06T02:30:53;8.52;;;6.53;;
6163;SDS011;3114;48.362;10.994;2022-08-06T02:33:22;8.95;;;6.57;;
6163;SDS011;3114;48.362;10.994;2022-08-06T02:35:50;8.98;;;7.47;;
6163;SDS011;3114;48.362;10.994;2022-08-06T02:38:22;8.52;;;6.78;;
6163;SDS011;3114;48.362;10.994;2022-08-06T02:40:55;7.18;;;6.10;;
6163;SDS011;3114;48.362;10.994;2022-08-06T02:43:27;8.20;;;6.03;;
6163;SDS011;3114;48.362;10.994;2022-08-06T02:46:00;7.32;;;5.22;;
6163;SDS011;3114;48.362;10.994;2022-08-06T02:48:35;6.47;;;4.15;;
6163;SDS011;3114;48.362;10.994;2022-08-06T02:51:07;5.53;;;4.05;;
6163;SDS011;3114;48.362;10.994;2022-08-06T02:53:39;5.47;;;4.20;;
6163;SDS011;3114;48.362;10.994;2022-08-06T02:56:11;5.13;;;3.60;;
6163;SDS011;3114;48.362;10.994;2022-08-06T02:58:41;5.70;;;3.13;;
6163;SDS011;3114;48.362;10.994;2022-08-06T03:01:11;5.82;;;3.40;;
6163;SDS011;3114;48.362;10.994;2022-08-06T03:03:42;3.95;;;3.20;;
6163;SDS011;3114;48.362;10.994;2022-08-06T03:06:12;5.10;;;3.45;;
6163;SDS011;3114;48.362;10.994;2022-08-06T03:08:41;5.32;;;3.30;;
6163;SDS011;3114;48.362;10.994;2022-08-06T03:11:09;6.93;;;2.92;;
6163;SDS011;3114;48.362;10.994;2022-08-06T03:13:37;6.47;;;2.75;;
6163;SDS011;3114;48.362;10.994;2022-08-06T03:16:06;3.17;;;2.67;;
6163;SDS011;3114;48.362;10.994;2022-08-06T03:18:34;3.70;;;2.58;;
6163;SDS011;3114;48.362;10.994;2022-08-06T03:21:03;4.53;;;2.78;;
6163;SDS011;3114;48.362;10.994;2022-08-06T03:23:31;4.82;;;2.75;;
6163;SDS011;3114;48.362;10.994;2022-08-06T03:26:00;4.50;;;3.13;;
6163;SDS011;3114;48.362;10.994;2022-08-06T03:28:28;3.92;;;3.05;;
6163;SDS011;3114;48.362;10.994;2022-08-06T03:30:56;4.45;;;3.10;;
6163;SDS011;3114;48.362;10.994;2022-08-06T03:33:25;3.45;;;2.83;;
6163;SDS011;3114;48.362;10.994;2022-08-06T03:35:52;4.82;;;2.83;;
6163;SDS011;3114;48.362;10.994;2022-08-06T03:38:21;4.13;;;2.80;;
6163;SDS011;3114;48.362;10.994;2022-08-06T03:40:49;6.25;;;3.20;;
6163;SDS011;3114;48.362;10.994;2022-08-06T03:43:17;3.83;;;2.75;;
6163;SDS011;3114;48.362;10.994;2022-08-06T03:45:44;3.85;;;3.03;;
6163;SDS011;3114;48.362;10.994;2022-08-06T03:48:15;5.90;;;3.35;;
6163;SDS011;3114;48.362;10.994;2022-08-06T03:50:47;4.55;;;3.60;;
6163;SDS011;3114;48.362;10.994;2022-08-06T03:53:17;4.68;;;3.55;;
6163;SDS011;3114;48.362;10.994;2022-08-06T03:55:48;5.47;;;3.85;;
6163;SDS011;3114;48.362;10.994;2022-08-06T03:58:16;3.83;;;3.45;;
6163;SDS011;3114;48.362;10.994;2022-08-06T04:00:45;5.40;;;3.30;;
6163;SDS011;3114;48.362;10.994;2022-08-06T04:03:17;4.53;;;3.13;;
6163;SDS011;3114;48.362;10.994;2022-08-06T04:05:44;4.43;;;3.28;;
6163;SDS011;3114;48.362;10.994;2022-08-06T04:08:13;3.50;;;3.20;;
6163;SDS011;3114;48.362;10.994;2022-08-06T04:10:42;4.40;;;3.63;;
6163;SDS011;3114;48.362;10.994;2022-08-06T04:13:10;5.93;;;3.55;;
6163;SDS011;3114;48.362;10.994;2022-08-06T04:15:39;5.20;;;3.78;;
6163;SDS011;3114;48.362;10.994;2022-08-06T04:18:07;5.20;;;4.00;;
6163;SDS011;3114;48.362;10.994;2022-08-06T04:20:36;4.95;;;4.07;;
6163;SDS011;3114;48.362;10.994;2022-08-06T04:23:07;3.53;;;3.15;;
6163;SDS011;3114;48.362;10.994;2022-08-06T04:25:35;5.78;;;4.10;;
6163;SDS011;3114;48.362;10.994;2022-08-06T04:28:05;5.30;;;3.83;;
6163;SDS011;3114;48.362;10.994;2022-08-06T04:30:33;6.57;;;4.07;;
6163;SDS011;3114;48.362;10.994;2022-08-06T04:33:01;5.03;;;4.53;;
6163;SDS011;3114;48.362;10.994;2022-08-06T04:35:30;8.43;;;4.85;;
6163;SDS011;3114;48.362;10.994;2022-08-06T04:37:57;6.78;;;4.38;;
6163;SDS011;3114;48.362;10.994;2022-08-06T04:40:28;9.30;;;5.10;;
6163;SDS011;3114;48.362;10.994;2022-08-06T04:42:55;6.35;;;4.82;;
6163;SDS011;3114;48.362;10.994;2022-08-06T04:45:22;7.35;;;4.70;;
6163;SDS011;3114;48.362;10.994;2022-08-06T04:47:50;6.15;;;4.85;;
6163;SDS011;3114;48.362;10.994;2022-08-06T04:50:18;4.93;;;4.43;;
6163;SDS011;3114;48.362;10.994;2022-08-06T04:52:45;6.90;;;4.50;;
6163;SDS011;3114;48.362;10.994;2022-08-06T04:55:12;6.28;;;4.45;;
6163;SDS011;3114;48.362;10.994;2022-08-06T04:57:41;5.55;;;4.30;;
6163;SDS011;3114;48.362;10.994;2022-08-06T05:00:08;5.72;;;4.35;;
6163;SDS011;3114;48.362;10.994;2022-08-06T05:02:36;5.45;;;4.30;;
6163;SDS011;3114;48.362;10.994;2022-08-06T05:05:03;5.18;;;4.40;;
6163;SDS011;3114;48.362;10.994;2022-08-06T05:07:33;4.78;;;3.85;;
6163;SDS011;3114;48.362;10.994;2022-08-06T05:10:04;6.05;;;4.00;;
6163;SDS011;3114;48.362;10.994;2022-08-06T05:12:32;3.85;;;3.30;;
6163;SDS011;3114;48.362;10.994;2022-08-06T05:15:05;4.45;;;3.50;;
6163;SDS011;3114;48.362;10.994;2022-08-06T05:17:36;5.80;;;3.50;;
6163;SDS011;3114;48.362;10.994;2022-08-06T05:20:09;5.85;;;3.25;;
6163;SDS011;3114;48.362;10.994;2022-08-06T05:22:41;5.95;;;3.53;;
6163;SDS011;3114;48.362;10.994;2022-08-06T05:25:11;3.30;;;2.88;;
6163;SDS011;3114;48.362;10.994;2022-08-06T05:27:39;4.15;;;3.20;;
6163;SDS011;3114;48.362;10.994;2022-08-06T05:30:08;3.67;;;3.03;;
6163;SDS011;3114;48.362;10.994;2022-08-06T05:32:40;3.22;;;2.92;;
6163;SDS011;3114;48.362;10.994;2022-08-06T05:35:07;5.03;;;2.75;;
6163;SDS011;3114;48.362;10.994;2022-08-06T05:37:34;2.75;;;2.55;;
6163;SDS011;3114;48.362;10.994;2022-08-06T05:40:03;3.45;;;3.10;;
6163;SDS011;3114;48.362;10.994;2022-08-06T05:42:30;3.45;;;2.33;;
6163;SDS011;3114;48.362;10.994;2022-08-06T05:44:57;4.60;;;2.65;;
6163;SDS011;3114;48.362;10.994;2022-08-06T05:47:27;3.65;;;2.45;;
6163;SDS011;3114;48.362;10.994;2022-08-06T05:50:03;2.55;;;2.35;;
6163;SDS011;3114;48.362;10.994;2022-08-06T05:52:34;2.60;;;2.35;;
6163;SDS011;3114;48.362;10.994;2022-08-06T05:55:06;3.85;;;2.28;;
6163;SDS011;3114;48.362;10.994;2022-08-06T05:57:41;3.15;;;2.03;;
6163;SDS011;3114;48.362;10.994;2022-08-06T06:00:12;4.53;;;2.50;;
6163;SDS011;3114;48.362;10.994;2022-08-06T06:02:44;2.97;;;2.20;;
6163;SDS011;3114;48.362;10.994;2022-08-06T06:05:13;3.30;;;2.35;;
6163;SDS011;3114;48.362;10.994;2022-08-06T06:07:41;5.90;;;2.40;;
6163;SDS011;3114;48.362;10.994;2022-08-06T06:10:08;3.53;;;2.00;;
6163;SDS011;3114;48.362;10.994;2022-08-06T06:12:38;2.38;;;2.15;;
6163;SDS011;3114;48.362;10.994;2022-08-06T06:15:06;3.95;;;2.20;;
6163;SDS011;3114;48.362;10.994;2022-08-06T06:17:41;3.25;;;2.60;;
6163;SDS011;3114;48.362;10.994;2022-08-06T06:20:29;3.63;;;2.58;;
6163;SDS011;3114;48.362;10.994;2022-08-06T06:23:10;2.50;;;2.28;;
6163;SDS011;3114;48.362;10.994;2022-08-06T06:25:42;2.35;;;2.17;;
6163;SDS011;3114;48.362;10.994;2022-08-06T06:28:13;2.67;;;2.47;;
6163;SDS011;3114;48.362;10.994;2022-08-06T06:30:50;2.15;;;1.95;;
6163;SDS011;3114;48.362;10.994;2022-08-06T06:33:22;5.05;;;2.88;;
6163;SDS011;3114;48.362;10.994;2022-08-06T06:35:53;2.83;;;2.58;;
6163;SDS011;3114;48.362;10.994;2022-08-06T06:38:27;3.28;;;2.97;;
6163;SDS011;3114;48.362;10.994;2022-08-06T06:41:02;3.15;;;2.72;;
6163;SDS011;3114;48.362;10.994;2022-08-06T06:43:37;4.82;;;2.95;;
6163;SDS011;3114;48.362;10.994;2022-08-06T06:46:10;6.22;;;3.10;;
6163;SDS011;3114;48.362;10.994;2022-08-06T06:48:44;3.58;;;2.88;;
6163;SDS011;3114;48.362;10.994;2022-08-06T06:51:24;5.47;;;2.60;;
6163;SDS011;3114;48.362;10.994;2022-08-06T06:53:55;5.43;;;3.00;;
6163;SDS011;3114;48.362;10.994;2022-08-06T06:56:25;4.90;;;2.75;;
6163;SDS011;3114;48.362;10.994;2022-08-06T06:58:55;3.80;;;2.78;;
6163;SDS011;3114;48.362;10.994;2022-08-06T07:01:26;5.95;;;3.38;;
6163;SDS011;3114;48.362;10.994;2022-08-06T07:03:57;4.28;;;3.00;;
6163;SDS011;3114;48.362;10.994;2022-08-06T07:06:26;5.55;;;3.45;;
6163;SDS011;3114;48.362;10.994;2022-08-06T07:08:55;5.22;;;3.38;;
6163;SDS011;3114;48.362;10.994;2022-08-06T07:11:24;5.78;;;4.38;;
6163;SDS011;3114;48.362;10.994;2022-08-06T07:13:53;5.03;;;3.88;;
6163;SDS011;3114;48.362;10.994;2022-08-06T07:16:22;5.72;;;4.47;;
6163;SDS011;3114;48.362;10.994;2022-08-06T07:18:51;6.63;;;4.50;;
6163;SDS011;3114;48.362;10.994;2022-08-06T07:21:20;5.20;;;4.55;;
6163;SDS011;3114;48.362;10.994;2022-08-06T07:23:48;9.25;;;5.25;;
6163;SDS011;3114;48.362;10.994;2022-08-06T07:26:21;6.05;;;5.38;;
6163;SDS011;3114;48.362;10.994;2022-08-06T07:28:49;7.07;;;5.45;;
6163;SDS011;3114;48.362;10.994;2022-08-06T07:31:18;6.75;;;5.72;;
6163;SDS011;3114;48.362;10.994;2022-08-06T07:33:48;6.47;;;5.70;;
6163;SDS011;3114;48.362;10.994;2022-08-06T07:36:17;7.20;;;5.30;;
6163;SDS011;3114;48.362;10.994;2022-08-06T07:38:47;8.60;;;5.38;;
6163;SDS011;3114;48.362;10.994;2022-08-06T07:41:15;8.57;;;5.95;;
6163;SDS011;3114;48.362;10.994;2022-08-06T07:43:46;8.38;;;5.63;;
6163;SDS011;3114;48.362;10.994;2022-08-06T07:46:20;7.65;;;5.78;;
6163;SDS011;3114;48.362;10.994;2022-08-06T07:48:49;7.25;;;5.90;;
6163;SDS011;3114;48.362;10.994;2022-08-06T07:51:22;7.80;;;5.68;;
6163;SDS011;3114;48.362;10.994;2022-08-06T07:53:51;8.13;;;6.03;;
6163;SDS011;3114;48.362;10.994;2022-08-06T07:56:19;6.97;;;5.85;;
6163;SDS011;3114;48.362;10.994;2022-08-06T07:58:51;10.43;;;6.70;;
6163;SDS011;3114;48.362;10.994;2022-08-06T08:01:18;10.20;;;6.38;;
6163;SDS011;3114;48.362;10.994;2022-08-06T08:03:58;6.93;;;5.90;;
6163;SDS011;3114;48.362;10.994;2022-08-06T08:06:45;7.90;;;6.25;;
6163;SDS011;3114;48.362;10.994;2022-08-06T08:09:13;7.75;;;6.43;;
6163;SDS011;3114;48.362;10.994;2022-08-06T08:11:42;7.60;;;6.03;;
6163;SDS011;3114;48.362;10.994;2022-08-06T08:14:11;9.73;;;6.88;;
6163;SDS011;3114;48.362;10.994;2022-08-06T08:16:41;9.20;;;6.53;;
6163;SDS011;3114;48.362;10.994;2022-08-06T08:19:22;7.13;;;6.43;;
6163;SDS011;3114;48.362;10.994;2022-08-06T08:21:54;7.35;;;6.25;;
6163;SDS011;3114;48.362;10.994;2022-08-06T08:24:22;7.80;;;6.30;;
6163;SDS011;3114;48.362;10.994;2022-08-06T08:26:49;8.57;;;6.65;;
6163;SDS011;3114;48.362;10.994;2022-08-06T08:29:26;8.10;;;7.30;;
6163;SDS011;3114;48.362;10.994;2022-08-06T08:31:58;7.78;;;6.93;;
6163;SDS011;3114;48.362;10.994;2022-08-06T08:34:26;8.75;;;6.78;;
6163;SDS011;3114;48.362;10.994;2022-08-06T08:36:54;7.63;;;6.80;;
6163;SDS011;3114;48.362;10.994;2022-08-06T08:39:21;8.38;;;6.82;;
6163;SDS011;3114;48.362;10.994;2022-08-06T08:41:49;7.90;;;6.68;;
6163;SDS011;3114;48.362;10.994;2022-08-06T08:44:21;10.35;;;6.55;;
6163;SDS011;3114;48.362;10.994;2022-08-06T08:46:50;8.57;;;7.32;;
6163;SDS011;3114;48.362;10.994;2022-08-06T08:49:18;8.75;;;6.68;;
6163;SDS011;3114;48.362;10.994;2022-08-06T08:51:47;42.33;;;32.67;;
6163;SDS011;3114;48.362;10.994;2022-08-06T08:54:18;43.78;;;33.63;;
6163;SDS011;3114;48.362;10.994;2022-08-06T08:56:48;79.63;;;61.30;;
6163;SDS011;3114;48.362;10.994;2022-08-06T08:59:16;13.25;;;10.48;;
6163;SDS011;3114;48.362;10.994;2022-08-06T09:01:43;11.57;;;8.65;;
6163;SDS011;3114;48.362;10.994;2022-08-06T09:04:10;9.05;;;8.15;;
6163;SDS011;3114;48.362;10.994;2022-08-06T09:06:37;8.63;;;7.72;;
6163;SDS011;3114;48.362;10.994;2022-08-06T09:09:05;10.40;;;7.57;;
6163;SDS011;3114;48.362;10.994;2022-08-06T09:11:34;8.43;;;7.53;;
6163;SDS011;3114;48.362;10.994;2022-08-06T09:14:02;9.98;;;7.68;;
6163;SDS011;3114;48.362;10.994;2022-08-06T09:16:30;8.40;;;7.57;;
6163;SDS011;3114;48.362;10.994;2022-08-06T09:18:58;9.88;;;7.80;;
6163;SDS011;3114;48.362;10.994;2022-08-06T09:21:26;8.68;;;7.82;;
6163;SDS011;3114;48.362;10.994;2022-08-06T09:23:53;9.40;;;8.50;;
6163;SDS011;3114;48.362;10.994;2022-08-06T09:26:21;8.48;;;7.60;;
6163;SDS011;3114;48.362;10.994;2022-08-06T09:28:49;9.77;;;8.02;;
6163;SDS011;3114;48.362;10.994;2022-08-06T09:31:17;8.70;;;7.80;;
6163;SDS011;3114;48.362;10.994;2022-08-06T09:33:52;8.82;;;7.93;;
6163;SDS011;3114;48.362;10.994;2022-08-06T09:36:20;8.15;;;7.35;;
6163;SDS011;3114;48.362;10.994;2022-08-06T09:38:49;10.07;;;7.82;;
6163;SDS011;3114;48.362;10.994;2022-08-06T09:41:18;9.35;;;8.35;;
6163;SDS011;3114;48.362;10.994;2022-08-06T09:43:50;11.43;;;8.45;;
6163;SDS011;3114;48.362;10.994;2022-08-06T09:46:34;8.57;;;7.78;;
6163;SDS011;3114;48.362;10.994;2022-08-06T09:49:03;8.80;;;7.72;;
6163;SDS011;3114;48.362;10.994;2022-08-06T09:51:30;8.88;;;7.85;;
6163;SDS011;3114;48.362;10.994;2022-08-06T09:54:00;8.63;;;7.63;;
6163;SDS011;3114;48.362;10.994;2022-08-06T09:56:28;8.90;;;8.00;;
6163;SDS011;3114;48.362;10.994;2022-08-06T09:58:58;9.93;;;8.18;;
6163;SDS011;3114;48.362;10.994;2022-08-06T10:01:26;10.55;;;7.97;;
6163;SDS011;3114;48.362;10.994;2022-08-06T10:03:54;9.02;;;8.18;;
6163;SDS011;3114;48.362;10.994;2022-08-06T10:06:23;10.27;;;7.95;;
6163;SDS011;3114;48.362;10.994;2022-08-06T10:09:05;9.10;;;8.02;;
6163;SDS011;3114;48.362;10.994;2022-08-06T10:11:34;10.02;;;8.38;;
6163;SDS011;3114;48.362;10.994;2022-08-06T10:14:04;9.13;;;8.13;;
6163;SDS011;3114;48.362;10.994;2022-08-06T10:16:31;10.75;;;8.73;;
6163;SDS011;3114;48.362;10.994;2022-08-06T10:19:01;14.18;;;8.52;;
6163;SDS011;3114;48.362;10.994;2022-08-06T10:21:32;9.93;;;8.93;;
6163;SDS011;3114;48.362;10.994;2022-08-06T10:24:00;10.35;;;9.30;;
6163;SDS011;3114;48.362;10.994;2022-08-06T10:26:28;11.60;;;9.80;;
6163;SDS011;3114;48.362;10.994;2022-08-06T10:29:00;12.02;;;9.57;;
6163;SDS011;3114;48.362;10.994;2022-08-06T10:31:30;11.55;;;9.60;;
6163;SDS011;3114;48.362;10.994;2022-08-06T10:33:59;11.30;;;8.95;;
6163;SDS011;3114;48.362;10.994;2022-08-06T10:36:28;12.02;;;9.18;;
6163;SDS011;3114;48.362;10.994;2022-08-06T10:38:59;12.57;;;8.88;;
6163;SDS011;3114;48.362;10.994;2022-08-06T10:41:28;10.13;;;9.13;;
6163;SDS011;3114;48.362;10.994;2022-08-06T10:43:56;10.52;;;9.25;;
6163;SDS011;3114;48.362;10.994;2022-08-06T10:46:24;11.23;;;9.25;;
6163;SDS011;3114;48.362;10.994;2022-08-06T10:48:53;9.85;;;8.40;;
6163;SDS011;3114;48.362;10.994;2022-08-06T10:51:20;12.27;;;9.52;;
6163;SDS011;3114;48.362;10.994;2022-08-06T10:53:48;10.20;;;8.98;;
6163;SDS011;3114;48.362;10.994;2022-08-06T10:56:15;9.75;;;8.77;;
6163;SDS011;3114;48.362;10.994;2022-08-06T10:58:43;10.50;;;8.45;;
6163;SDS011;3114;48.362;10.994;2022-08-06T11:01:13;11.23;;;9.27;;
6163;SDS011;3114;48.362;10.994;2022-08-06T11:03:50;9.77;;;8.77;;
6163;SDS011;3114;48.362;10.994;2022-08-06T11:06:31;13.05;;;8.68;;
6163;SDS011;3114;48.362;10.994;2022-08-06T11:09:15;11.05;;;9.15;;
6163;SDS011;3114;48.362;10.994;2022-08-06T11:12:07;9.48;;;8.20;;
6163;SDS011;3114;48.362;10.994;2022-08-06T11:14:49;10.35;;;8.35;;
6163;SDS011;3114;48.362;10.994;2022-08-06T11:17:17;9.25;;;8.35;;
6163;SDS011;3114;48.362;10.994;2022-08-06T11:19:47;9.73;;;8.27;;
6163;SDS011;3114;48.362;10.994;2022-08-06T11:25:02;9.35;;;8.30;;
6163;SDS011;3114;48.362;10.994;2022-08-06T11:27:49;8.73;;;7.93;;
6163;SDS011;3114;48.362;10.994;2022-08-06T11:30:17;9.20;;;8.30;;
6163;SDS011;3114;48.362;10.994;2022-08-06T11:32:46;12.30;;;8.60;;
6163;SDS011;3114;48.362;10.994;2022-08-06T11:38:11;9.60;;;8.65;;
6163;SDS011;3114;48.362;10.994;2022-08-06T11:40:55;8.88;;;7.72;;
6163;SDS011;3114;48.362;10.994;2022-08-06T11:43:42;8.65;;;7.85;;
6163;SDS011;3114;48.362;10.994;2022-08-06T11:46:16;9.25;;;8.10;;
6163;SDS011;3114;48.362;10.994;2022-08-06T11:51:52;7.80;;;7.10;;
6163;SDS011;3114;48.362;10.994;2022-08-06T11:54:22;8.20;;;7.40;;
6163;SDS011;3114;48.362;10.994;2022-08-06T12:00:05;8.45;;;7.65;;
6163;SDS011;3114;48.362;10.994;2022-08-06T12:02:49;8.25;;;7.45;;
6163;SDS011;3114;48.362;10.994;2022-08-06T12:05:32;7.53;;;6.50;;
6163;SDS011;3114;48.362;10.994;2022-08-06T12:08:12;8.43;;;7.30;;
6163;SDS011;3114;48.362;10.994;2022-08-06T12:13:47;7.35;;;6.53;;
6163;SDS011;3114;48.362;10.994;2022-08-06T12:19:00;6.68;;;6.07;;
6163;SDS011;3114;48.362;10.994;2022-08-06T12:21:29;6.68;;;5.95;;
6163;SDS011;3114;48.362;10.994;2022-08-06T12:23:57;6.45;;;5.85;;
6163;SDS011;3114;48.362;10.994;2022-08-06T12:26:24;5.70;;;5.07;;
6163;SDS011;3114;48.362;10.994;2022-08-06T12:29:00;5.45;;;4.95;;
6163;SDS011;3114;48.362;10.994;2022-08-06T12:31:30;7.30;;;5.20;;
6163;SDS011;3114;48.362;10.994;2022-08-06T12:33:59;10.95;;;10.05;;
6163;SDS011;3114;48.362;10.994;2022-08-06T12:36:27;5.35;;;4.72;;
6163;SDS011;3114;48.362;10.994;2022-08-06T12:38:56;6.15;;;5.18;;
6163;SDS011;3114;48.362;10.994;2022-08-06T12:41:32;6.72;;;5.10;;
6163;SDS011;3114;48.362;10.994;2022-08-06T12:44:00;5.30;;;4.68;;
6163;SDS011;3114;48.362;10.994;2022-08-06T12:46:27;5.90;;;5.00;;
6163;SDS011;3114;48.362;10.994;2022-08-06T12:48:54;5.32;;;4.82;;
6163;SDS011;3114;48.362;10.994;2022-08-06T12:51:21;5.60;;;4.55;;
6163;SDS011;3114;48.362;10.994;2022-08-06T12:53:48;5.53;;;4.18;;
6163;SDS011;3114;48.362;10.994;2022-08-06T12:56:19;4.53;;;4.13;;
6163;SDS011;3114;48.362;10.994;2022-08-06T12:58:48;3.92;;;3.63;;
6163;SDS011;3114;48.362;10.994;2022-08-06T13:01:17;5.90;;;3.38;;
6163;SDS011;3114;48.362;10.994;2022-08-06T13:03:46;5.10;;;3.63;;
6163;SDS011;3114;48.362;10.994;2022-08-06T13:06:14;3.30;;;3.00;;
6163;SDS011;3114;48.362;10.994;2022-08-06T13:08:44;3.92;;;3.35;;
6163;SDS011;3114;48.362;10.994;2022-08-06T13:11:13;3.55;;;3.13;;
6163;SDS011;3114;48.362;10.994;2022-08-06T13:13:42;4.15;;;3.85;;
6163;SDS011;3114;48.362;10.994;2022-08-06T13:16:13;4.13;;;3.72;;
6163;SDS011;3114;48.362;10.994;2022-08-06T13:18:40;4.13;;;3.72;;
6163;SDS011;3114;48.362;10.994;2022-08-06T13:21:15;3.80;;;3.50;;
6163;SDS011;3114;48.362;10.994;2022-08-06T13:23:45;3.80;;;3.40;;
6163;SDS011;3114;48.362;10.994;2022-08-06T13:26:16;3.50;;;3.20;;
6163;SDS011;3114;48.362;10.994;2022-08-06T13:31:32;3.85;;;3.30;;
6163;SDS011;3114;48.362;10.994;2022-08-06T13:34:00;4.03;;;3.53;;
6163;SDS011;3114;48.362;10.994;2022-08-06T13:36:28;3.95;;;2.53;;
6163;SDS011;3114;48.362;10.994;2022-08-06T13:38:56;3.28;;;2.97;;
6163;SDS011;3114;48.362;10.994;2022-08-06T13:41:28;4.07;;;3.17;;
6163;SDS011;3114;48.362;10.994;2022-08-06T13:43:57;3.20;;;2.90;;
6163;SDS011;3114;48.362;10.994;2022-08-06T13:46:26;4.63;;;3.08;;
6163;SDS011;3114;48.362;10.994;2022-08-06T13:48:54;3.08;;;2.70;;
6163;SDS011;3114;48.362;10.994;2022-08-06T13:51:23;4.00;;;2.88;;
6163;SDS011;3114;48.362;10.994;2022-08-06T13:53:50;2.95;;;2.75;;
6163;SDS011;3114;48.362;10.994;2022-08-06T13:56:17;3.08;;;2.78;;
6163;SDS011;3114;48.362;10.994;2022-08-06T13:58:43;3.45;;;2.38;;
6163;SDS011;3114;48.362;10.994;2022-08-06T14:01:11;4.15;;;2.92;;
6163;SDS011;3114;48.362;10.994;2022-08-06T14:03:40;3.83;;;2.70;;
6163;SDS011;3114;48.362;10.994;2022-08-06T14:06:07;4.15;;;3.17;;
6163;SDS011;3114;48.362;10.994;2022-08-06T14:08:34;3.60;;;2.55;;
6163;SDS011;3114;48.362;10.994;2022-08-06T14:11:01;4.80;;;2.90;;
6163;SDS011;3114;48.362;10.994;2022-08-06T14:13:28;2.80;;;2.58;;
6163;SDS011;3114;48.362;10.994;2022-08-06T14:15:57;3.90;;;2.70;;
6163;SDS011;3114;48.362;10.994;2022-08-06T14:18:26;2.50;;;2.30;;
6163;SDS011;3114;48.362;10.994;2022-08-06T14:20:55;3.53;;;2.72;;
6163;SDS011;3114;48.362;10.994;2022-08-06T14:23:22;2.65;;;2.28;;
6163;SDS011;3114;48.362;10.994;2022-08-06T14:25:49;3.40;;;2.88;;
6163;SDS011;3114;48.362;10.994;2022-08-06T14:28:16;4.45;;;2.65;;
6163;SDS011;3114;48.362;10.994;2022-08-06T14:30:45;2.40;;;2.17;;
6163;SDS011;3114;48.362;10.994;2022-08-06T14:33:12;2.72;;;2.30;;
6163;SDS011;3114;48.362;10.994;2022-08-06T14:35:39;3.97;;;2.60;;
6163;SDS011;3114;48.362;10.994;2022-08-06T14:38:07;3.42;;;2.30;;
6163;SDS011;3114;48.362;10.994;2022-08-06T14:40:36;2.50;;;2.30;;
6163;SDS011;3114;48.362;10.994;2022-08-06T14:43:20;2.47;;;2.28;;
6163;SDS011;3114;48.362;10.994;2022-08-06T14:46:04;4.40;;;2.50;;
6163;SDS011;3114;48.362;10.994;2022-08-06T14:48:31;3.40;;;2.47;;
6163;SDS011;3114;48.362;10.994;2022-08-06T14:50:58;2.78;;;2.15;;
6163;SDS011;3114;48.362;10.994;2022-08-06T14:53:26;2.65;;;2.45;;
6163;SDS011;3114;48.362;10.994;2022-08-06T14:55:53;2.67;;;2.40;;
6163;SDS011;3114;48.362;10.994;2022-08-06T14:58:20;2.83;;;2.63;;
6163;SDS011;3114;48.362;10.994;2022-08-06T15:00:47;2.88;;;2.13;;
6163;SDS011;3114;48.362;10.994;2022-08-06T15:03:16;2.85;;;2.15;;
6163;SDS011;3114;48.362;10.994;2022-08-06T15:05:43;3.17;;;2.10;;
6163;SDS011;3114;48.362;10.994;2022-08-06T15:08:11;3.08;;;2.15;;
6163;SDS011;3114;48.362;10.994;2022-08-06T15:10:40;2.13;;;2.00;;
6163;SDS011;3114;48.362;10.994;2022-08-06T15:13:07;3.33;;;2.17;;
6163;SDS011;3114;48.362;10.994;2022-08-06T15:15:34;2.83;;;2.33;;
6163;SDS011;3114;48.362;10.994;2022-08-06T15:18:01;2.35;;;2.10;;
6163;SDS011;3114;48.362;10.994;2022-08-06T15:20:28;5.28;;;2.50;;
6163;SDS011;3114;48.362;10.994;2022-08-06T15:22:55;2.85;;;2.17;;
6163;SDS011;3114;48.362;10.994;2022-08-06T15:25:22;2.40;;;2.20;;
6163;SDS011;3114;48.362;10.994;2022-08-06T15:27:50;3.50;;;2.10;;
6163;SDS011;3114;48.362;10.994;2022-08-06T15:30:17;2.65;;;2.45;;
6163;SDS011;3114;48.362;10.994;2022-08-06T15:32:44;2.55;;;2.30;;
6163;SDS011;3114;48.362;10.994;2022-08-06T15:35:12;3.15;;;2.63;;
6163;SDS011;3114;48.362;10.994;2022-08-06T15:37:39;3.97;;;2.88;;
6163;SDS011;3114;48.362;10.994;2022-08-06T15:40:07;3.25;;;2.95;;